sensor_id;sensor_type;location;lat;lon;timestamp;P1;durP1;ratioP1;P2;durP2;ratioP2
16199;SDS011;8207;52.494;4.654;2022-07-01T00:00:44;4.30;;;1.90;;
16199;SDS011;8207;52.494;4.654;2022-07-01T00:03:13;5.30;;;1.87;;
16199;SDS011;8207;52.494;4.654;2022-07-01T00:05:40;4.07;;;1.50;;
16199;SDS011;8207;52.494;4.654;2022-07-01T00:08:07;1.83;;;1.20;;
16199;SDS011;8207;52.494;4.654;2022-07-01T00:10:34;2.67;;;1.17;;
16199;SDS011;8207;52.494;4.654;2022-07-01T00:13:02;3.07;;;1.33;;
16199;SDS011;8207;52.494;4.654;2022-07-01T00:15:29;2.27;;;1.00;;
16199;SDS011;8207;52.494;4.654;2022-07-01T00:17:56;1.27;;;1.00;;
16199;SDS011;8207;52.494;4.654;2022-07-01T00:20:24;2.30;;;1.20;;
16199;SDS011;8207;52.494;4.654;2022-07-01T00:22:52;1.33;;;1.00;;
16199;SDS011;8207;52.494;4.654;2022-07-01T00:25:18;1.77;;;1.23;;
16199;SDS011;8207;52.494;4.654;2022-07-01T00:27:45;3.23;;;1.10;;
16199;SDS011;8207;52.494;4.654;2022-07-01T00:30:13;3.37;;;1.20;;
16199;SDS011;8207;52.494;4.654;2022-07-01T00:32:40;8.03;;;1.50;;
16199;SDS011;8207;52.494;4.654;2022-07-01T00:35:07;2.67;;;1.30;;
16199;SDS011;8207;52.494;4.654;2022-07-01T00:37:37;4.03;;;1.50;;
16199;SDS011;8207;52.494;4.654;2022-07-01T00:40:06;1.90;;;1.30;;
16199;SDS011;8207;52.494;4.654;2022-07-01T00:42:37;7.80;;;1.83;;
16199;SDS011;8207;52.494;4.654;2022-07-01T00:45:06;2.83;;;1.80;;
16199;SDS011;8207;52.494;4.654;2022-07-01T00:47:34;4.03;;;1.93;;
16199;SDS011;8207;52.494;4.654;2022-07-01T00:50:01;2.77;;;1.70;;
16199;SDS011;8207;52.494;4.654;2022-07-01T00:52:32;3.33;;;1.93;;
16199;SDS011;8207;52.494;4.654;2022-07-01T00:55:01;4.27;;;2.03;;
16199;SDS011;8207;52.494;4.654;2022-07-01T00:57:29;2.80;;;1.77;;
16199;SDS011;8207;52.494;4.654;2022-07-01T00:59:57;3.00;;;1.93;;
16199;SDS011;8207;52.494;4.654;2022-07-01T01:02:24;4.03;;;2.07;;
16199;SDS011;8207;52.494;4.654;2022-07-01T01:04:51;3.90;;;1.87;;
16199;SDS011;8207;52.494;4.654;2022-07-01T01:07:18;1.70;;;1.60;;
16199;SDS011;8207;52.494;4.654;2022-07-01T01:09:45;3.97;;;1.70;;
16199;SDS011;8207;52.494;4.654;2022-07-01T01:12:13;4.30;;;1.70;;
16199;SDS011;8207;52.494;4.654;2022-07-01T01:14:44;3.77;;;2.00;;
16199;SDS011;8207;52.494;4.654;2022-07-01T01:17:11;6.53;;;2.20;;
16199;SDS011;8207;52.494;4.654;2022-07-01T01:19:38;2.73;;;1.70;;
16199;SDS011;8207;52.494;4.654;2022-07-01T01:22:06;3.13;;;1.80;;
16199;SDS011;8207;52.494;4.654;2022-07-01T01:24:33;2.60;;;1.90;;
16199;SDS011;8207;52.494;4.654;2022-07-01T01:27:01;2.73;;;2.10;;
16199;SDS011;8207;52.494;4.654;2022-07-01T01:29:28;4.13;;;2.70;;
16199;SDS011;8207;52.494;4.654;2022-07-01T01:31:55;4.73;;;2.77;;
16199;SDS011;8207;52.494;4.654;2022-07-01T01:34:23;6.50;;;3.10;;
16199;SDS011;8207;52.494;4.654;2022-07-01T01:36:50;4.33;;;2.63;;
16199;SDS011;8207;52.494;4.654;2022-07-01T01:39:19;4.30;;;2.90;;
16199;SDS011;8207;52.494;4.654;2022-07-01T01:41:46;5.10;;;2.60;;
16199;SDS011;8207;52.494;4.654;2022-07-01T01:44:13;4.20;;;3.03;;
16199;SDS011;8207;52.494;4.654;2022-07-01T01:46:40;6.47;;;4.53;;
16199;SDS011;8207;52.494;4.654;2022-07-01T01:49:07;6.93;;;4.73;;
16199;SDS011;8207;52.494;4.654;2022-07-01T01:51:35;6.93;;;5.57;;
16199;SDS011;8207;52.494;4.654;2022-07-01T01:54:02;8.80;;;5.83;;
16199;SDS011;8207;52.494;4.654;2022-07-01T01:56:31;9.00;;;6.63;;
16199;SDS011;8207;52.494;4.654;2022-07-01T01:58:58;9.90;;;7.03;;
16199;SDS011;8207;52.494;4.654;2022-07-01T02:01:25;9.00;;;7.17;;
16199;SDS011;8207;52.494;4.654;2022-07-01T02:03:52;10.83;;;8.77;;
16199;SDS011;8207;52.494;4.654;2022-07-01T02:06:20;11.93;;;9.20;;
16199;SDS011;8207;52.494;4.654;2022-07-01T02:08:48;12.87;;;10.63;;
16199;SDS011;8207;52.494;4.654;2022-07-01T02:11:15;11.63;;;10.40;;
16199;SDS011;8207;52.494;4.654;2022-07-01T02:13:43;12.40;;;9.87;;
16199;SDS011;8207;52.494;4.654;2022-07-01T02:16:10;18.07;;;14.23;;
16199;SDS011;8207;52.494;4.654;2022-07-01T02:18:38;16.33;;;13.40;;
16199;SDS011;8207;52.494;4.654;2022-07-01T02:21:04;18.23;;;16.27;;
16199;SDS011;8207;52.494;4.654;2022-07-01T02:23:31;17.70;;;15.10;;
16199;SDS011;8207;52.494;4.654;2022-07-01T02:25:59;20.77;;;16.10;;
16199;SDS011;8207;52.494;4.654;2022-07-01T02:28:26;19.30;;;15.27;;
16199;SDS011;8207;52.494;4.654;2022-07-01T02:30:54;23.33;;;18.63;;
16199;SDS011;8207;52.494;4.654;2022-07-01T02:33:21;24.33;;;18.73;;
16199;SDS011;8207;52.494;4.654;2022-07-01T02:35:48;18.13;;;15.03;;
16199;SDS011;8207;52.494;4.654;2022-07-01T02:38:15;21.73;;;18.40;;
16199;SDS011;8207;52.494;4.654;2022-07-01T02:40:42;22.97;;;20.47;;
16199;SDS011;8207;52.494;4.654;2022-07-01T02:43:09;20.50;;;17.50;;
16199;SDS011;8207;52.494;4.654;2022-07-01T02:45:36;23.57;;;19.10;;
16199;SDS011;8207;52.494;4.654;2022-07-01T02:48:04;24.90;;;20.37;;
16199;SDS011;8207;52.494;4.654;2022-07-01T02:50:32;22.27;;;19.37;;
16199;SDS011;8207;52.494;4.654;2022-07-01T02:52:59;24.07;;;19.50;;
16199;SDS011;8207;52.494;4.654;2022-07-01T02:55:26;19.43;;;17.07;;
16199;SDS011;8207;52.494;4.654;2022-07-01T02:57:54;26.43;;;21.23;;
16199;SDS011;8207;52.494;4.654;2022-07-01T03:00:21;22.37;;;18.60;;
16199;SDS011;8207;52.494;4.654;2022-07-01T03:02:48;24.17;;;19.30;;
16199;SDS011;8207;52.494;4.654;2022-07-01T03:05:17;22.97;;;19.07;;
16199;SDS011;8207;52.494;4.654;2022-07-01T03:07:43;21.77;;;17.53;;
16199;SDS011;8207;52.494;4.654;2022-07-01T03:10:10;23.33;;;18.70;;
16199;SDS011;8207;52.494;4.654;2022-07-01T03:12:37;20.27;;;15.90;;
16199;SDS011;8207;52.494;4.654;2022-07-01T03:15:06;18.23;;;15.77;;
16199;SDS011;8207;52.494;4.654;2022-07-01T03:17:35;17.87;;;15.60;;
16199;SDS011;8207;52.494;4.654;2022-07-01T03:20:03;19.67;;;15.63;;
16199;SDS011;8207;52.494;4.654;2022-07-01T03:22:33;20.73;;;16.07;;
16199;SDS011;8207;52.494;4.654;2022-07-01T03:25:01;18.93;;;16.60;;
16199;SDS011;8207;52.494;4.654;2022-07-01T03:27:29;20.63;;;16.90;;
16199;SDS011;8207;52.494;4.654;2022-07-01T03:29:57;21.97;;;15.83;;
16199;SDS011;8207;52.494;4.654;2022-07-01T03:32:24;18.23;;;13.10;;
16199;SDS011;8207;52.494;4.654;2022-07-01T03:34:52;15.57;;;12.67;;
16199;SDS011;8207;52.494;4.654;2022-07-01T03:37:19;19.37;;;13.10;;
16199;SDS011;8207;52.494;4.654;2022-07-01T03:39:48;14.27;;;10.80;;
16199;SDS011;8207;52.494;4.654;2022-07-01T03:42:16;14.60;;;11.03;;
16199;SDS011;8207;52.494;4.654;2022-07-01T03:44:43;17.57;;;11.90;;
16199;SDS011;8207;52.494;4.654;2022-07-01T03:47:10;16.67;;;11.33;;
16199;SDS011;8207;52.494;4.654;2022-07-01T03:49:37;13.37;;;10.90;;
16199;SDS011;8207;52.494;4.654;2022-07-01T03:52:04;13.50;;;9.93;;
16199;SDS011;8207;52.494;4.654;2022-07-01T03:54:32;14.60;;;9.30;;
16199;SDS011;8207;52.494;4.654;2022-07-01T03:57:02;12.80;;;9.07;;
16199;SDS011;8207;52.494;4.654;2022-07-01T03:59:31;13.27;;;8.33;;
16199;SDS011;8207;52.494;4.654;2022-07-01T04:02:00;9.83;;;7.03;;
16199;SDS011;8207;52.494;4.654;2022-07-01T04:04:27;10.60;;;7.00;;
16199;SDS011;8207;52.494;4.654;2022-07-01T04:06:55;10.87;;;6.03;;
16199;SDS011;8207;52.494;4.654;2022-07-01T04:09:23;18.00;;;4.30;;
16199;SDS011;8207;52.494;4.654;2022-07-01T04:11:51;6.93;;;3.43;;
16199;SDS011;8207;52.494;4.654;2022-07-01T04:14:20;14.53;;;4.00;;
16199;SDS011;8207;52.494;4.654;2022-07-01T04:16:49;8.13;;;4.23;;
16199;SDS011;8207;52.494;4.654;2022-07-01T04:19:16;14.27;;;4.83;;
16199;SDS011;8207;52.494;4.654;2022-07-01T04:21:44;7.90;;;3.73;;
16199;SDS011;8207;52.494;4.654;2022-07-01T04:24:28;9.30;;;4.57;;
16199;SDS011;8207;52.494;4.654;2022-07-01T04:26:57;11.03;;;4.10;;
16199;SDS011;8207;52.494;4.654;2022-07-01T04:29:26;6.57;;;2.30;;
16199;SDS011;8207;52.494;4.654;2022-07-01T04:31:54;5.60;;;2.20;;
16199;SDS011;8207;52.494;4.654;2022-07-01T04:34:21;6.80;;;1.80;;
16199;SDS011;8207;52.494;4.654;2022-07-01T04:36:47;4.77;;;1.63;;
16199;SDS011;8207;52.494;4.654;2022-07-01T04:39:14;3.67;;;1.70;;
16199;SDS011;8207;52.494;4.654;2022-07-01T04:41:41;6.67;;;2.43;;
16199;SDS011;8207;52.494;4.654;2022-07-01T04:44:28;7.17;;;2.10;;
16199;SDS011;8207;52.494;4.654;2022-07-01T04:46:55;8.83;;;2.27;;
16199;SDS011;8207;52.494;4.654;2022-07-01T04:49:22;8.40;;;1.53;;
16199;SDS011;8207;52.494;4.654;2022-07-01T04:51:49;5.00;;;1.73;;
16199;SDS011;8207;52.494;4.654;2022-07-01T04:54:17;8.85;;;1.80;;
16199;SDS011;8207;52.494;4.654;2022-07-01T04:56:44;9.68;;;2.45;;
16199;SDS011;8207;52.494;4.654;2022-07-01T04:59:11;8.32;;;2.30;;
16199;SDS011;8207;52.494;4.654;2022-07-01T05:01:40;6.07;;;1.92;;
16199;SDS011;8207;52.494;4.654;2022-07-01T05:04:07;9.77;;;2.78;;
16199;SDS011;8207;52.494;4.654;2022-07-01T05:06:33;5.18;;;1.70;;
16199;SDS011;8207;52.494;4.654;2022-07-01T05:09:00;4.38;;;1.60;;
16199;SDS011;8207;52.494;4.654;2022-07-01T05:11:27;5.85;;;1.63;;
16199;SDS011;8207;52.494;4.654;2022-07-01T05:13:54;5.78;;;1.70;;
16199;SDS011;8207;52.494;4.654;2022-07-01T05:16:21;4.88;;;2.00;;
16199;SDS011;8207;52.494;4.654;2022-07-01T05:18:49;7.82;;;1.27;;
16199;SDS011;8207;52.494;4.654;2022-07-01T05:21:34;5.20;;;1.75;;
16199;SDS011;8207;52.494;4.654;2022-07-01T05:24:18;5.45;;;1.65;;
16199;SDS011;8207;52.494;4.654;2022-07-01T05:26:45;5.32;;;2.08;;
16199;SDS011;8207;52.494;4.654;2022-07-01T05:29:12;5.30;;;1.60;;
16199;SDS011;8207;52.494;4.654;2022-07-01T05:31:39;5.90;;;1.70;;
16199;SDS011;8207;52.494;4.654;2022-07-01T05:34:07;4.90;;;1.42;;
16199;SDS011;8207;52.494;4.654;2022-07-01T05:36:34;5.03;;;1.40;;
16199;SDS011;8207;52.494;4.654;2022-07-01T05:39:01;2.65;;;1.23;;
16199;SDS011;8207;52.494;4.654;2022-07-01T05:41:29;3.25;;;1.30;;
16199;SDS011;8207;52.494;4.654;2022-07-01T05:43:56;4.90;;;1.55;;
16199;SDS011;8207;52.494;4.654;2022-07-01T05:46:23;5.22;;;1.42;;
16199;SDS011;8207;52.494;4.654;2022-07-01T05:48:50;3.92;;;1.67;;
16199;SDS011;8207;52.494;4.654;2022-07-01T05:51:18;6.22;;;1.77;;
16199;SDS011;8207;52.494;4.654;2022-07-01T05:53:45;8.25;;;1.83;;
16199;SDS011;8207;52.494;4.654;2022-07-01T05:56:12;6.43;;;1.90;;
16199;SDS011;8207;52.494;4.654;2022-07-01T05:58:40;5.47;;;1.67;;
16199;SDS011;8207;52.494;4.654;2022-07-01T06:01:07;8.98;;;2.03;;
16199;SDS011;8207;52.494;4.654;2022-07-01T06:03:33;4.47;;;1.50;;
16199;SDS011;8207;52.494;4.654;2022-07-01T06:06:00;3.58;;;1.70;;
16199;SDS011;8207;52.494;4.654;2022-07-01T06:08:29;6.55;;;1.60;;
16199;SDS011;8207;52.494;4.654;2022-07-01T06:10:56;3.83;;;1.48;;
16199;SDS011;8207;52.494;4.654;2022-07-01T06:13:23;5.25;;;1.80;;
16199;SDS011;8207;52.494;4.654;2022-07-01T06:15:49;6.55;;;2.17;;
16199;SDS011;8207;52.494;4.654;2022-07-01T06:18:16;5.93;;;2.17;;
16199;SDS011;8207;52.494;4.654;2022-07-01T06:20:43;4.05;;;1.83;;
16199;SDS011;8207;52.494;4.654;2022-07-01T06:23:10;6.57;;;1.92;;
16199;SDS011;8207;52.494;4.654;2022-07-01T06:25:38;7.47;;;2.00;;
16199;SDS011;8207;52.494;4.654;2022-07-01T06:28:05;5.78;;;1.92;;
16199;SDS011;8207;52.494;4.654;2022-07-01T06:30:32;6.85;;;2.20;;
16199;SDS011;8207;52.494;4.654;2022-07-01T06:32:59;7.57;;;1.90;;
16199;SDS011;8207;52.494;4.654;2022-07-01T06:35:26;5.88;;;1.55;;
16199;SDS011;8207;52.494;4.654;2022-07-01T06:37:53;4.22;;;1.80;;
16199;SDS011;8207;52.494;4.654;2022-07-01T06:40:19;3.33;;;1.80;;
16199;SDS011;8207;52.494;4.654;2022-07-01T06:42:48;5.53;;;1.58;;
16199;SDS011;8207;52.494;4.654;2022-07-01T06:45:16;6.35;;;1.83;;
16199;SDS011;8207;52.494;4.654;2022-07-01T06:47:42;3.30;;;1.30;;
16199;SDS011;8207;52.494;4.654;2022-07-01T06:50:09;5.95;;;1.58;;
16199;SDS011;8207;52.494;4.654;2022-07-01T06:52:36;4.38;;;1.40;;
16199;SDS011;8207;52.494;4.654;2022-07-01T06:55:03;6.03;;;1.55;;
16199;SDS011;8207;52.494;4.654;2022-07-01T06:57:31;8.15;;;1.75;;
16199;SDS011;8207;52.494;4.654;2022-07-01T06:59:59;6.47;;;1.60;;
16199;SDS011;8207;52.494;4.654;2022-07-01T07:02:26;9.07;;;1.83;;
16199;SDS011;8207;52.494;4.654;2022-07-01T07:04:53;3.50;;;1.50;;
16199;SDS011;8207;52.494;4.654;2022-07-01T07:07:23;3.47;;;1.30;;
16199;SDS011;8207;52.494;4.654;2022-07-01T07:09:52;4.47;;;1.33;;
16199;SDS011;8207;52.494;4.654;2022-07-01T07:12:21;5.13;;;1.63;;
16199;SDS011;8207;52.494;4.654;2022-07-01T07:14:47;5.65;;;1.73;;
16199;SDS011;8207;52.494;4.654;2022-07-01T07:17:16;3.72;;;1.30;;
16199;SDS011;8207;52.494;4.654;2022-07-01T07:19:43;6.57;;;1.80;;
16199;SDS011;8207;52.494;4.654;2022-07-01T07:22:09;12.75;;;2.42;;
16199;SDS011;8207;52.494;4.654;2022-07-01T07:24:36;5.90;;;2.20;;
16199;SDS011;8207;52.494;4.654;2022-07-01T07:27:03;9.00;;;2.00;;
16199;SDS011;8207;52.494;4.654;2022-07-01T07:29:30;4.55;;;1.73;;
16199;SDS011;8207;52.494;4.654;2022-07-01T07:31:57;9.13;;;2.35;;
16199;SDS011;8207;52.494;4.654;2022-07-01T07:34:25;6.97;;;2.08;;
16199;SDS011;8207;52.494;4.654;2022-07-01T07:36:52;7.70;;;2.38;;
16199;SDS011;8207;52.494;4.654;2022-07-01T07:39:19;11.13;;;2.70;;
16199;SDS011;8207;52.494;4.654;2022-07-01T07:41:46;4.95;;;1.67;;
16199;SDS011;8207;52.494;4.654;2022-07-01T07:44:14;5.07;;;1.65;;
16199;SDS011;8207;52.494;4.654;2022-07-01T07:46:41;5.35;;;1.70;;
16199;SDS011;8207;52.494;4.654;2022-07-01T07:49:08;5.50;;;1.63;;
16199;SDS011;8207;52.494;4.654;2022-07-01T07:51:36;3.80;;;1.25;;
16199;SDS011;8207;52.494;4.654;2022-07-01T07:54:03;5.80;;;1.27;;
16199;SDS011;8207;52.494;4.654;2022-07-01T07:56:30;3.85;;;1.05;;
16199;SDS011;8207;52.494;4.654;2022-07-01T07:58:57;3.50;;;1.02;;
16199;SDS011;8207;52.494;4.654;2022-07-01T08:01:24;6.47;;;1.73;;
16199;SDS011;8207;52.494;4.654;2022-07-01T08:03:51;3.40;;;1.20;;
16199;SDS011;8207;52.494;4.654;2022-07-01T08:06:18;3.33;;;1.10;;
16199;SDS011;8207;52.494;4.654;2022-07-01T08:08:46;2.75;;;1.23;;
16199;SDS011;8207;52.494;4.654;2022-07-01T08:11:13;3.55;;;1.85;;
16199;SDS011;8207;52.494;4.654;2022-07-01T08:13:40;4.80;;;1.30;;
16199;SDS011;8207;52.494;4.654;2022-07-01T08:16:07;4.80;;;2.00;;
16199;SDS011;8207;52.494;4.654;2022-07-01T08:18:34;4.63;;;1.85;;
16199;SDS011;8207;52.494;4.654;2022-07-01T08:21:01;6.88;;;1.42;;
16199;SDS011;8207;52.494;4.654;2022-07-01T08:23:28;3.45;;;1.13;;
16199;SDS011;8207;52.494;4.654;2022-07-01T08:25:57;4.13;;;1.08;;
16199;SDS011;8207;52.494;4.654;2022-07-01T08:28:23;3.40;;;0.90;;
16199;SDS011;8207;52.494;4.654;2022-07-01T08:30:50;2.33;;;1.00;;
16199;SDS011;8207;52.494;4.654;2022-07-01T08:33:17;5.43;;;1.95;;
16199;SDS011;8207;52.494;4.654;2022-07-01T08:35:44;2.83;;;0.90;;
16199;SDS011;8207;52.494;4.654;2022-07-01T08:38:12;5.28;;;0.90;;
16199;SDS011;8207;52.494;4.654;2022-07-01T08:40:39;2.75;;;1.00;;
16199;SDS011;8207;52.494;4.654;2022-07-01T08:43:07;4.65;;;1.25;;
16199;SDS011;8207;52.494;4.654;2022-07-01T08:45:35;4.20;;;0.95;;
16199;SDS011;8207;52.494;4.654;2022-07-01T08:48:03;3.60;;;1.10;;
16199;SDS011;8207;52.494;4.654;2022-07-01T08:50:33;4.15;;;1.20;;
16199;SDS011;8207;52.494;4.654;2022-07-01T08:53:02;2.45;;;0.90;;
16199;SDS011;8207;52.494;4.654;2022-07-01T08:55:30;4.05;;;1.23;;
16199;SDS011;8207;52.494;4.654;2022-07-01T08:57:57;4.90;;;1.50;;
16199;SDS011;8207;52.494;4.654;2022-07-01T09:00:32;3.80;;;1.15;;
16199;SDS011;8207;52.494;4.654;2022-07-01T09:03:00;6.00;;;1.35;;
16199;SDS011;8207;52.494;4.654;2022-07-01T09:05:28;5.38;;;1.50;;
16199;SDS011;8207;52.494;4.654;2022-07-01T09:07:57;3.25;;;1.40;;
16199;SDS011;8207;52.494;4.654;2022-07-01T09:10:27;5.03;;;1.20;;
16199;SDS011;8207;52.494;4.654;2022-07-01T09:12:56;5.18;;;1.42;;
16199;SDS011;8207;52.494;4.654;2022-07-01T09:15:25;2.90;;;1.25;;
16199;SDS011;8207;52.494;4.654;2022-07-01T09:17:55;3.47;;;1.17;;
16199;SDS011;8207;52.494;4.654;2022-07-01T09:20:26;7.63;;;1.60;;
16199;SDS011;8207;52.494;4.654;2022-07-01T09:23:02;5.53;;;1.50;;
16199;SDS011;8207;52.494;4.654;2022-07-01T09:25:31;6.68;;;1.48;;
16199;SDS011;8207;52.494;4.654;2022-07-01T09:28:03;4.75;;;1.40;;
16199;SDS011;8207;52.494;4.654;2022-07-01T09:30:31;4.75;;;1.30;;
16199;SDS011;8207;52.494;4.654;2022-07-01T09:33:06;4.53;;;1.52;;
16199;SDS011;8207;52.494;4.654;2022-07-01T09:35:35;4.50;;;1.13;;
16199;SDS011;8207;52.494;4.654;2022-07-01T09:38:02;3.45;;;1.40;;
16199;SDS011;8207;52.494;4.654;2022-07-01T09:40:50;4.57;;;1.45;;
16199;SDS011;8207;52.494;4.654;2022-07-01T09:43:19;6.25;;;1.65;;
16199;SDS011;8207;52.494;4.654;2022-07-01T09:45:54;5.80;;;1.45;;
16199;SDS011;8207;52.494;4.654;2022-07-01T09:48:24;7.90;;;1.65;;
16199;SDS011;8207;52.494;4.654;2022-07-01T09:50:54;6.03;;;1.50;;
16199;SDS011;8207;52.494;4.654;2022-07-01T09:53:21;4.13;;;1.35;;
16199;SDS011;8207;52.494;4.654;2022-07-01T09:55:47;4.75;;;1.42;;
16199;SDS011;8207;52.494;4.654;2022-07-01T09:58:15;4.80;;;1.50;;
16199;SDS011;8207;52.494;4.654;2022-07-01T10:00:42;3.17;;;1.17;;
16199;SDS011;8207;52.494;4.654;2022-07-01T10:03:10;4.22;;;1.50;;
16199;SDS011;8207;52.494;4.654;2022-07-01T10:05:41;7.32;;;1.45;;
16199;SDS011;8207;52.494;4.654;2022-07-01T10:08:19;6.28;;;1.58;;
16199;SDS011;8207;52.494;4.654;2022-07-01T10:11:00;5.53;;;1.58;;
16199;SDS011;8207;52.494;4.654;2022-07-01T10:13:37;5.57;;;1.40;;
16199;SDS011;8207;52.494;4.654;2022-07-01T10:16:06;6.22;;;1.20;;
16199;SDS011;8207;52.494;4.654;2022-07-01T10:18:34;4.60;;;1.33;;
16199;SDS011;8207;52.494;4.654;2022-07-01T10:21:03;9.07;;;2.08;;
16199;SDS011;8207;52.494;4.654;2022-07-01T10:23:36;4.55;;;1.33;;
16199;SDS011;8207;52.494;4.654;2022-07-01T10:26:05;8.20;;;1.27;;
16199;SDS011;8207;52.494;4.654;2022-07-01T10:28:42;5.57;;;1.70;;
16199;SDS011;8207;52.494;4.654;2022-07-01T10:31:11;4.00;;;1.20;;
16199;SDS011;8207;52.494;4.654;2022-07-01T10:33:44;6.75;;;1.40;;
16199;SDS011;8207;52.494;4.654;2022-07-01T10:36:15;5.07;;;1.60;;
16199;SDS011;8207;52.494;4.654;2022-07-01T10:44:34;3.88;;;1.05;;
16199;SDS011;8207;52.494;4.654;2022-07-01T10:47:03;7.03;;;1.40;;
16199;SDS011;8207;52.494;4.654;2022-07-01T10:49:52;4.35;;;1.23;;
16199;SDS011;8207;52.494;4.654;2022-07-01T10:52:24;3.78;;;1.20;;
16199;SDS011;8207;52.494;4.654;2022-07-01T10:54:52;6.43;;;1.75;;
16199;SDS011;8207;52.494;4.654;2022-07-01T10:57:21;5.80;;;1.65;;
16199;SDS011;8207;52.494;4.654;2022-07-01T10:59:53;6.25;;;1.20;;
16199;SDS011;8207;52.494;4.654;2022-07-01T11:02:22;5.47;;;1.70;;
16199;SDS011;8207;52.494;4.654;2022-07-01T11:04:51;4.57;;;1.25;;
16199;SDS011;8207;52.494;4.654;2022-07-01T11:07:19;5.05;;;1.50;;
16199;SDS011;8207;52.494;4.654;2022-07-01T11:09:48;5.80;;;1.60;;
16199;SDS011;8207;52.494;4.654;2022-07-01T11:12:15;4.05;;;1.00;;
16199;SDS011;8207;52.494;4.654;2022-07-01T11:14:42;8.25;;;1.77;;
16199;SDS011;8207;52.494;4.654;2022-07-01T11:17:10;7.13;;;1.83;;
16199;SDS011;8207;52.494;4.654;2022-07-01T11:19:37;4.85;;;1.63;;
16199;SDS011;8207;52.494;4.654;2022-07-01T11:22:04;3.92;;;1.30;;
16199;SDS011;8207;52.494;4.654;2022-07-01T11:24:31;5.65;;;1.70;;
16199;SDS011;8207;52.494;4.654;2022-07-01T11:27:05;6.10;;;1.80;;
16199;SDS011;8207;52.494;4.654;2022-07-01T11:29:33;5.47;;;1.48;;
16199;SDS011;8207;52.494;4.654;2022-07-01T11:32:00;7.30;;;1.77;;
16199;SDS011;8207;52.494;4.654;2022-07-01T11:34:27;5.50;;;1.30;;
16199;SDS011;8207;52.494;4.654;2022-07-01T11:36:55;4.47;;;1.70;;
16199;SDS011;8207;52.494;4.654;2022-07-01T11:39:40;7.35;;;1.60;;
16199;SDS011;8207;52.494;4.654;2022-07-01T11:42:10;4.38;;;1.45;;
16199;SDS011;8207;52.494;4.654;2022-07-01T11:44:37;5.35;;;1.42;;
16199;SDS011;8207;52.494;4.654;2022-07-01T11:47:07;7.07;;;1.60;;
16199;SDS011;8207;52.494;4.654;2022-07-01T11:49:42;6.45;;;1.67;;
16199;SDS011;8207;52.494;4.654;2022-07-01T11:52:10;4.93;;;1.17;;
16199;SDS011;8207;52.494;4.654;2022-07-01T11:54:37;4.57;;;1.38;;
16199;SDS011;8207;52.494;4.654;2022-07-01T11:57:09;5.65;;;1.65;;
16199;SDS011;8207;52.494;4.654;2022-07-01T11:59:38;5.30;;;1.50;;
16199;SDS011;8207;52.494;4.654;2022-07-01T12:02:05;6.35;;;1.88;;
16199;SDS011;8207;52.494;4.654;2022-07-01T12:04:33;4.75;;;1.25;;
16199;SDS011;8207;52.494;4.654;2022-07-01T12:07:00;3.65;;;1.50;;
16199;SDS011;8207;52.494;4.654;2022-07-01T12:09:27;5.78;;;1.95;;
16199;SDS011;8207;52.494;4.654;2022-07-01T12:11:54;5.38;;;1.70;;
16199;SDS011;8207;52.494;4.654;2022-07-01T12:14:23;5.18;;;1.27;;
16199;SDS011;8207;52.494;4.654;2022-07-01T12:16:51;6.25;;;1.20;;
16199;SDS011;8207;52.494;4.654;2022-07-01T12:19:19;4.88;;;1.10;;
16199;SDS011;8207;52.494;4.654;2022-07-01T12:21:47;6.68;;;2.08;;
16199;SDS011;8207;52.494;4.654;2022-07-01T12:24:16;5.40;;;1.50;;
16199;SDS011;8207;52.494;4.654;2022-07-01T12:26:47;4.20;;;1.23;;
16199;SDS011;8207;52.494;4.654;2022-07-01T12:29:15;3.33;;;1.40;;
16199;SDS011;8207;52.494;4.654;2022-07-01T12:31:53;5.18;;;1.85;;
16199;SDS011;8207;52.494;4.654;2022-07-01T12:34:21;4.35;;;1.30;;
16199;SDS011;8207;52.494;4.654;2022-07-01T12:36:48;6.15;;;1.52;;
16199;SDS011;8207;52.494;4.654;2022-07-01T12:39:16;6.28;;;1.52;;
16199;SDS011;8207;52.494;4.654;2022-07-01T12:41:49;5.22;;;1.45;;
16199;SDS011;8207;52.494;4.654;2022-07-01T12:44:20;5.15;;;1.20;;
16199;SDS011;8207;52.494;4.654;2022-07-01T12:46:49;6.93;;;1.70;;
16199;SDS011;8207;52.494;4.654;2022-07-01T12:49:20;7.65;;;2.13;;
16199;SDS011;8207;52.494;4.654;2022-07-01T12:51:48;3.88;;;1.50;;
16199;SDS011;8207;52.494;4.654;2022-07-01T12:56:57;7.10;;;1.70;;
16199;SDS011;8207;52.494;4.654;2022-07-01T12:59:24;5.90;;;1.98;;
16199;SDS011;8207;52.494;4.654;2022-07-01T13:01:52;6.85;;;2.22;;
16199;SDS011;8207;52.494;4.654;2022-07-01T13:04:24;3.92;;;1.40;;
16199;SDS011;8207;52.494;4.654;2022-07-01T13:06:51;6.45;;;1.85;;
16199;SDS011;8207;52.494;4.654;2022-07-01T13:09:18;3.95;;;1.40;;
16199;SDS011;8207;52.494;4.654;2022-07-01T13:11:45;6.60;;;1.60;;
16199;SDS011;8207;52.494;4.654;2022-07-01T13:14:12;4.80;;;1.40;;
16199;SDS011;8207;52.494;4.654;2022-07-01T13:16:39;6.15;;;1.48;;
16199;SDS011;8207;52.494;4.654;2022-07-01T13:19:07;3.40;;;1.30;;
16199;SDS011;8207;52.494;4.654;2022-07-01T13:21:34;3.72;;;1.30;;
16199;SDS011;8207;52.494;4.654;2022-07-01T13:24:01;2.97;;;1.35;;
16199;SDS011;8207;52.494;4.654;2022-07-01T13:26:28;5.68;;;1.40;;
16199;SDS011;8207;52.494;4.654;2022-07-01T13:28:55;6.53;;;1.40;;
16199;SDS011;8207;52.494;4.654;2022-07-01T13:31:22;8.30;;;1.73;;
16199;SDS011;8207;52.494;4.654;2022-07-01T13:33:49;4.38;;;1.27;;
16199;SDS011;8207;52.494;4.654;2022-07-01T13:36:17;5.53;;;1.50;;
16199;SDS011;8207;52.494;4.654;2022-07-01T13:38:44;7.22;;;1.50;;
16199;SDS011;8207;52.494;4.654;2022-07-01T13:41:11;4.88;;;1.50;;
16199;SDS011;8207;52.494;4.654;2022-07-01T13:43:38;3.53;;;1.08;;
16199;SDS011;8207;52.494;4.654;2022-07-01T13:46:05;5.75;;;1.30;;
16199;SDS011;8207;52.494;4.654;2022-07-01T13:48:32;6.47;;;1.40;;
16199;SDS011;8207;52.494;4.654;2022-07-01T13:51:00;5.15;;;1.20;;
16199;SDS011;8207;52.494;4.654;2022-07-01T13:53:28;5.30;;;1.35;;
16199;SDS011;8207;52.494;4.654;2022-07-01T13:55:55;4.93;;;1.70;;
16199;SDS011;8207;52.494;4.654;2022-07-01T13:58:22;5.65;;;2.38;;
16199;SDS011;8207;52.494;4.654;2022-07-01T14:00:48;3.97;;;1.40;;
16199;SDS011;8207;52.494;4.654;2022-07-01T14:03:15;4.95;;;2.20;;
16199;SDS011;8207;52.494;4.654;2022-07-01T14:05:42;4.95;;;1.20;;
16199;SDS011;8207;52.494;4.654;2022-07-01T14:08:09;3.97;;;1.40;;
16199;SDS011;8207;52.494;4.654;2022-07-01T14:10:37;5.22;;;1.30;;
16199;SDS011;8207;52.494;4.654;2022-07-01T14:13:06;3.28;;;1.17;;
16199;SDS011;8207;52.494;4.654;2022-07-01T14:15:33;3.15;;;1.40;;
16199;SDS011;8207;52.494;4.654;2022-07-01T14:18:00;6.15;;;1.60;;
16199;SDS011;8207;52.494;4.654;2022-07-01T14:20:27;4.68;;;1.63;;
16199;SDS011;8207;52.494;4.654;2022-07-01T14:22:54;7.40;;;1.58;;
16199;SDS011;8207;52.494;4.654;2022-07-01T14:25:21;5.22;;;1.52;;
16199;SDS011;8207;52.494;4.654;2022-07-01T14:27:50;3.33;;;1.25;;
16199;SDS011;8207;52.494;4.654;2022-07-01T14:30:17;5.30;;;1.38;;
16199;SDS011;8207;52.494;4.654;2022-07-01T14:32:43;5.78;;;1.42;;
16199;SDS011;8207;52.494;4.654;2022-07-01T14:35:10;4.35;;;1.35;;
16199;SDS011;8207;52.494;4.654;2022-07-01T14:37:37;4.32;;;1.10;;
16199;SDS011;8207;52.494;4.654;2022-07-01T14:40:05;4.43;;;1.30;;
16199;SDS011;8207;52.494;4.654;2022-07-01T14:42:33;5.57;;;1.50;;
16199;SDS011;8207;52.494;4.654;2022-07-01T14:45:02;7.03;;;1.65;;
16199;SDS011;8207;52.494;4.654;2022-07-01T14:47:30;4.88;;;1.65;;
16199;SDS011;8207;52.494;4.654;2022-07-01T14:49:58;2.33;;;1.40;;
16199;SDS011;8207;52.494;4.654;2022-07-01T14:52:25;5.10;;;1.30;;
16199;SDS011;8207;52.494;4.654;2022-07-01T14:54:52;4.15;;;1.17;;
16199;SDS011;8207;52.494;4.654;2022-07-01T14:57:19;3.53;;;1.27;;
16199;SDS011;8207;52.494;4.654;2022-07-01T14:59:46;5.22;;;1.27;;
16199;SDS011;8207;52.494;4.654;2022-07-01T15:02:15;4.13;;;1.42;;
16199;SDS011;8207;52.494;4.654;2022-07-01T15:04:42;3.33;;;1.35;;
16199;SDS011;8207;52.494;4.654;2022-07-01T15:07:08;2.75;;;1.42;;
16199;SDS011;8207;52.494;4.654;2022-07-01T15:09:35;7.65;;;1.83;;
16199;SDS011;8207;52.494;4.654;2022-07-01T15:12:02;5.85;;;1.83;;